Flugplatz Kyritz

EDBK · 勃兰登堡, 德国

使用的METAR站距离机场95 km。
罗盘
风向 的 风向 的 风向 到 风向 110° Flugplatz Kyritz 14/32
风: 6 kt, 2 beaufort

5 kt

3 kt
改变
0 ft 1.000 2.000 3.000 4.000 5.000
Cloud Cloud Cloud Cloud Cloud Cloud
BKN 4.500
METAR EDDB 221020Z AUTO 11006KT 070V160 9999 BKN045 24/15 Q1006 BECMG TL1200 18012KT

METAR Flugplatz Kyritz - EDBK

Flugplatz Kyritz是,德国中的小机场。 该机场位于纬度52,91868和经度12,42498。 该机场有2条跑道: 14/32 和 14R/32L. 本场的ICAO机场代码为EDBK。 机场在Bremen FIR中。

该航空气象观测是针对柏林勃兰登堡机场在2024年5月22日 12:20, 当地时间进行的。

机场观察

风向为110°,速度为6 kt。 风向在070°和160°之间变化。

可见度为10 km 或者更多。

有碎云在4.500 ft的高度。 破损或更高的上限为4.500 ft。

温度和风寒是24 °C。 露点为15 °C,相对湿度为57%。 海平面上的气压为1006 hPa (QNH)。

发展趋势

  • 变得

    风来自180°方向,速度为12 kt。

白天

今天,太阳从05:01升起,在21:12降落。 这适用于Flugplatz Kyritz,世界夏令时可能有所不同。 当地时间与世界标准时间之间的时差为+2 小时。 夏令时目前正在进行中。

公司介绍

在这个机场,你可以找到飞行学校。 本场上唯一已知的公司是Ardex Flight School。

体会

到Vliegles.nl去找飞行课程,跳伞和其他飞行体验。 浏览页面,了解Flugplatz Kyritz附近所有可用的活动。 你也可以使用搜索功能来寻找你所在地附近的特定飞行课程、跳伞或其他飞行体验。

跑道

Id 标题 侧风 逆风 侧风 %
14/32 139°-319° 3 kt 5 kt 48 %
14R/32L 138°-318° 3 kt 5 kt 47 %

逆风成分最大的方向会被突出显示,并用于横风计算。 这并不一定意味着这个方向在使用。

乌云

4.500 ft BKN 碎云

温度 & 天气

温度 24 °C
露点 15 °C
相对湿度 57%
Kp-index 0 (0-9)

白天

日出
04:59
中午
13:02
日落
21:05 (8:05)

小工具

你想在你的网站上有一个关于Flugplatz Kyritz的当前航空天气(METAR)的小部件吗?

显示HTML代码
报告变更